createdAt,value
2018-02-23T00:00:43.544Z,990.36
2018-02-23T00:01:43.533Z,990.4
2018-02-23T00:02:43.522Z,990.41
2018-02-23T00:03:43.509Z,990.38
2018-02-23T00:04:43.495Z,990.38
2018-02-23T00:05:43.486Z,990.35
2018-02-23T00:06:43.474Z,990.41
2018-02-23T00:07:43.471Z,990.38
2018-02-23T00:08:43.450Z,990.3
2018-02-23T00:09:43.441Z,990.35
2018-02-23T00:10:43.428Z,990.27
2018-02-23T00:11:43.416Z,990.3
2018-02-23T00:12:43.407Z,990.33
2018-02-23T00:13:43.395Z,990.28
2018-02-23T00:14:43.384Z,990.32
2018-02-23T00:15:43.372Z,990.26
2018-02-23T00:16:43.375Z,990.29
2018-02-23T00:17:43.349Z,990.29
2018-02-23T00:18:43.358Z,990.35
2018-02-23T00:19:43.326Z,990.34
2018-02-23T00:20:43.312Z,990.32
2018-02-23T00:21:43.301Z,990.34
2018-02-23T00:22:43.299Z,990.34
2018-02-23T00:23:43.278Z,990.32
2018-02-23T00:24:43.267Z,990.35
2018-02-23T00:25:43.500Z,990.32
2018-02-23T00:26:43.460Z,990.3
2018-02-23T00:27:43.233Z,990.32
2018-02-23T00:28:43.221Z,990.32
2018-02-23T00:29:43.209Z,990.3
2018-02-23T00:30:43.199Z,990.29
2018-02-23T00:31:43.186Z,990.34
2018-02-23T00:32:43.176Z,990.36
2018-02-23T00:33:43.164Z,990.32
2018-02-23T00:34:43.154Z,990.23
2018-02-23T00:35:43.141Z,990.3
2018-02-23T00:36:43.169Z,990.24
2018-02-23T00:37:43.117Z,990.26
2018-02-23T00:38:43.118Z,990.24
2018-02-23T00:39:43.103Z,990.27
2018-02-23T00:40:43.084Z,990.29
2018-02-23T00:41:43.073Z,990.26
2018-02-23T00:42:43.062Z,990.27
2018-02-23T00:43:43.110Z,990.32
2018-02-23T00:44:43.047Z,990.29
2018-02-23T00:45:43.031Z,990.26
2018-02-23T00:46:43.021Z,990.28
2018-02-23T00:47:43.004Z,990.24
2018-02-23T00:48:42.992Z,990.27
2018-02-23T00:49:42.980Z,990.24
2018-02-23T00:50:42.972Z,990.28
2018-02-23T00:51:42.956Z,990.32
2018-02-23T00:52:42.944Z,990.32
2018-02-23T00:53:42.935Z,990.31
2018-02-23T00:54:42.924Z,990.31
2018-02-23T00:55:42.909Z,990.3
2018-02-23T00:56:42.897Z,990.29
2018-02-23T00:57:42.891Z,990.31
2018-02-23T00:58:42.875Z,990.32
2018-02-23T00:59:42.862Z,990.3
2018-02-23T01:00:42.850Z,990.32
2018-02-23T01:01:42.844Z,990.33
2018-02-23T01:02:42.828Z,990.32
2018-02-23T01:03:42.821Z,990.24
2018-02-23T01:04:42.806Z,990.3
2018-02-23T01:05:42.812Z,990.28
2018-02-23T01:06:42.782Z,990.32
2018-02-23T01:07:42.772Z,990.25
2018-02-23T01:08:42.758Z,990.27
2018-02-23T01:09:42.747Z,990.3
2018-02-23T01:10:42.739Z,990.25
2018-02-23T01:11:42.724Z,990.24
2018-02-23T01:12:42.713Z,990.23
2018-02-23T01:13:42.700Z,990.21
2018-02-23T01:14:42.690Z,990.16
2018-02-23T01:15:42.732Z,990.19
2018-02-23T01:16:42.674Z,990.23
2018-02-23T01:17:42.655Z,990.18
2018-02-23T01:18:42.643Z,990.13
2018-02-23T01:19:42.632Z,990.14
2018-02-23T01:20:42.619Z,990.11
2018-02-23T01:21:42.609Z,990.11
2018-02-23T01:22:42.595Z,990.09
2018-02-23T01:23:42.594Z,990.07
2018-02-23T01:24:42.572Z,990.08
2018-02-23T01:25:42.600Z,990.08
2018-02-23T01:26:42.550Z,990.07
2018-02-23T01:27:42.537Z,990.07
2018-02-23T01:28:42.532Z,990.09
2018-02-23T01:29:42.514Z,990.08
2018-02-23T01:30:42.504Z,990.13
2018-02-23T01:31:42.490Z,990.06
2018-02-23T01:32:42.478Z,990.11
2018-02-23T01:33:42.479Z,990
2018-02-23T01:34:42.456Z,990.03
2018-02-23T01:35:42.450Z,990.02
2018-02-23T01:36:42.431Z,990.04
2018-02-23T01:37:42.425Z,990.08
2018-02-23T01:38:42.408Z,990.04
2018-02-23T01:39:42.396Z,990.05
2018-02-23T01:40:42.385Z,990
2018-02-23T01:41:42.372Z,990.01
2018-02-23T01:42:42.360Z,990.02
2018-02-23T01:43:42.349Z,989.96
2018-02-23T01:44:42.342Z,989.95
2018-02-23T01:45:42.326Z,990.01
2018-02-23T01:46:42.313Z,989.99
2018-02-23T01:47:42.301Z,989.96
2018-02-23T01:48:42.290Z,990
2018-02-23T01:49:42.281Z,990
2018-02-23T01:50:42.265Z,990.02
2018-02-23T01:51:42.253Z,989.99
2018-02-23T01:52:42.242Z,989.97
2018-02-23T01:53:42.230Z,989.94
2018-02-23T01:54:42.217Z,990
2018-02-23T01:55:42.249Z,989.97
2018-02-23T01:56:42.200Z,989.97
2018-02-23T01:57:42.182Z,989.95
2018-02-23T01:58:42.172Z,989.93
2018-02-23T01:59:42.159Z,989.9
2018-02-23T02:00:42.156Z,989.94
2018-02-23T02:01:42.145Z,989.99
2018-02-23T02:02:42.123Z,989.93
2018-02-23T02:03:42.111Z,989.95
2018-02-23T02:04:42.099Z,989.96
2018-02-23T02:05:42.120Z,989.9
2018-02-23T02:06:42.076Z,989.9
2018-02-23T02:07:42.072Z,989.89
2018-02-23T02:08:42.050Z,989.91
2018-02-23T02:09:42.041Z,989.89
2018-02-23T02:10:42.054Z,989.88
2018-02-23T02:11:42.016Z,989.83
2018-02-23T02:12:42.002Z,989.87
2018-02-23T02:13:41.991Z,989.88
2018-02-23T02:14:41.979Z,989.87
2018-02-23T02:15:41.967Z,989.82
2018-02-23T02:16:41.954Z,989.81
2018-02-23T02:17:41.941Z,989.85
2018-02-23T02:18:41.931Z,989.85
2018-02-23T02:19:41.921Z,989.73
2018-02-23T02:20:41.907Z,989.79
2018-02-23T02:21:41.893Z,989.76
2018-02-23T02:22:41.884Z,989.74
2018-02-23T02:23:41.870Z,989.72
2018-02-23T02:24:41.876Z,989.73
2018-02-23T02:25:41.852Z,989.75
2018-02-23T02:26:41.832Z,989.73
2018-02-23T02:27:41.824Z,989.74
2018-02-23T02:28:41.816Z,989.67
2018-02-23T02:29:42.899Z,989.71
2018-02-23T02:30:41.788Z,989.67
2018-02-23T02:31:41.772Z,989.64
2018-02-23T02:32:41.762Z,989.62
2018-02-23T02:33:41.761Z,989.57
2018-02-23T02:34:41.738Z,989.58
2018-02-23T02:35:41.731Z,989.62
2018-02-23T02:36:41.714Z,989.67
2018-02-23T02:37:41.703Z,989.64
2018-02-23T02:38:41.690Z,989.61
2018-02-23T02:39:41.678Z,989.64
2018-02-23T02:40:41.668Z,989.67
2018-02-23T02:41:41.674Z,989.66
2018-02-23T02:42:41.644Z,989.64
2018-02-23T02:43:41.632Z,989.6
2018-02-23T02:44:41.622Z,989.62
2018-02-23T02:45:41.705Z,989.65
2018-02-23T02:46:41.602Z,989.68
2018-02-23T02:47:41.584Z,989.7
2018-02-23T02:48:41.570Z,989.68
2018-02-23T02:49:41.559Z,989.66
2018-02-23T02:50:41.548Z,989.64
2018-02-23T02:51:41.536Z,989.62
2018-02-23T02:52:41.527Z,989.62
2018-02-23T02:53:41.517Z,989.66
2018-02-23T02:54:41.500Z,989.64
2018-02-23T02:55:41.486Z,989.6
2018-02-23T02:56:41.476Z,989.67
2018-02-23T02:57:41.463Z,989.59
2018-02-23T02:58:41.451Z,989.66
2018-02-23T02:59:41.440Z,989.63
2018-02-23T03:00:41.432Z,989.66
2018-02-23T03:01:41.415Z,989.65
2018-02-23T03:02:41.404Z,989.6
2018-02-23T03:03:41.391Z,989.59
2018-02-23T03:04:41.379Z,989.57
2018-02-23T03:05:41.433Z,989.59
2018-02-23T03:06:41.384Z,989.61
2018-02-23T03:07:41.347Z,989.59
2018-02-23T03:08:41.344Z,989.55
2018-02-23T03:09:41.339Z,989.58
2018-02-23T03:10:41.358Z,989.6
2018-02-23T03:11:41.294Z,989.57
2018-02-23T03:12:41.285Z,989.54
2018-02-23T03:13:41.288Z,989.56
2018-02-23T03:14:41.256Z,989.53
2018-02-23T03:15:41.284Z,989.63
2018-02-23T03:16:41.231Z,989.63
2018-02-23T03:17:41.220Z,989.67
2018-02-23T03:18:41.217Z,989.65
2018-02-23T03:19:41.194Z,989.61
2018-02-23T03:20:41.182Z,989.64
2018-02-23T03:21:41.169Z,989.68
2018-02-23T03:22:41.159Z,989.62
2018-02-23T03:23:41.157Z,989.68
2018-02-23T03:24:41.135Z,989.67
2018-02-23T03:25:41.138Z,989.62
2018-02-23T03:26:41.108Z,989.66
2018-02-23T03:27:41.101Z,989.64
2018-02-23T03:28:41.083Z,989.63
2018-02-23T03:29:41.128Z,989.63
2018-02-23T03:30:41.123Z,989.65
2018-02-23T03:31:41.046Z,989.61
2018-02-23T03:32:41.037Z,989.6
2018-02-23T03:33:41.019Z,989.61
2018-02-23T03:34:41.011Z,989.61
2018-02-23T03:35:41.030Z,989.64
2018-02-23T03:36:40.984Z,989.68
2018-02-23T03:37:41.008Z,989.67
2018-02-23T03:38:40.958Z,989.65
2018-02-23T03:39:40.945Z,989.59
2018-02-23T03:40:40.935Z,989.61
2018-02-23T03:41:40.919Z,989.63
2018-02-23T03:42:40.909Z,989.68
2018-02-23T03:43:40.898Z,989.72
2018-02-23T03:44:40.883Z,989.72
2018-02-23T03:45:40.898Z,989.67
2018-02-23T03:46:40.858Z,989.7
2018-02-23T03:47:40.845Z,989.66
2018-02-23T03:48:40.834Z,989.74
2018-02-23T03:49:40.821Z,989.69
2018-02-23T03:50:40.810Z,989.69
2018-02-23T03:51:40.797Z,989.66
2018-02-23T03:52:40.784Z,989.67
2018-02-23T03:53:40.769Z,989.71
2018-02-23T03:54:40.757Z,989.67
2018-02-23T03:55:40.816Z,989.68
2018-02-23T03:56:40.783Z,989.69
2018-02-23T03:57:40.722Z,989.73
2018-02-23T03:58:40.715Z,989.72
2018-02-23T03:59:40.695Z,989.71
2018-02-23T04:00:40.683Z,989.69
2018-02-23T04:01:40.671Z,989.72
2018-02-23T04:02:40.661Z,989.75
2018-02-23T04:03:40.656Z,989.71
2018-02-23T04:04:40.633Z,989.77
2018-02-23T04:05:40.634Z,989.72
2018-02-23T04:06:40.608Z,989.71
2018-02-23T04:07:40.597Z,989.77
2018-02-23T04:08:40.583Z,989.76
2018-02-23T04:09:40.571Z,989.75
2018-02-23T04:10:40.664Z,989.73
2018-02-23T04:11:40.546Z,989.75
2018-02-23T04:12:40.534Z,989.77
2018-02-23T04:13:40.519Z,989.76
2018-02-23T04:14:40.508Z,989.77
2018-02-23T04:15:40.495Z,989.77
2018-02-23T04:16:40.481Z,989.83
2018-02-23T04:17:40.472Z,989.86
2018-02-23T04:18:40.465Z,989.83
2018-02-23T04:19:40.446Z,989.79
2018-02-23T04:20:40.498Z,989.79
2018-02-23T04:21:40.421Z,989.75
2018-02-23T04:22:40.407Z,989.76
2018-02-23T04:23:40.399Z,989.77
2018-02-23T04:24:40.382Z,989.83
2018-02-23T04:25:40.406Z,989.74
2018-02-23T04:26:40.361Z,989.85
2018-02-23T04:27:40.341Z,989.76
2018-02-23T04:28:40.331Z,989.78
2018-02-23T04:29:40.318Z,989.78
2018-02-23T04:30:42.222Z,989.76
2018-02-23T04:31:40.290Z,989.78
2018-02-23T04:32:40.293Z,989.84
2018-02-23T04:33:40.267Z,989.83
2018-02-23T04:34:40.257Z,989.84
2018-02-23T04:35:40.279Z,989.79
2018-02-23T04:36:40.230Z,989.77
2018-02-23T04:37:40.215Z,989.73
2018-02-23T04:38:40.201Z,989.75
2018-02-23T04:39:40.187Z,989.85
2018-02-23T04:40:40.181Z,989.76
2018-02-23T04:41:40.160Z,989.78
2018-02-23T04:42:40.150Z,989.84
2018-02-23T04:43:40.135Z,989.82
2018-02-23T04:44:40.123Z,989.75
2018-02-23T04:45:40.198Z,989.76
2018-02-23T04:46:40.095Z,989.83
2018-02-23T04:47:40.084Z,989.84
2018-02-23T04:48:40.073Z,989.89
2018-02-23T04:49:40.057Z,989.82
2018-02-23T04:50:40.046Z,989.84
2018-02-23T04:51:40.033Z,989.85
2018-02-23T04:52:40.017Z,989.84
2018-02-23T04:53:40.007Z,989.92
2018-02-23T04:54:39.992Z,989.86
2018-02-23T04:55:39.981Z,989.78
2018-02-23T04:56:39.972Z,989.86
2018-02-23T04:57:39.953Z,989.85
2018-02-23T04:58:39.945Z,989.86
2018-02-23T04:59:39.926Z,989.91
2018-02-23T05:00:39.912Z,989.82
2018-02-23T05:01:39.899Z,989.85
2018-02-23T05:02:39.886Z,989.82
2018-02-23T05:03:39.873Z,989.84
2018-02-23T05:04:39.861Z,989.86
2018-02-23T05:05:39.861Z,989.9
2018-02-23T05:06:39.838Z,989.86
2018-02-23T05:07:39.833Z,989.9
2018-02-23T05:08:39.808Z,989.86
2018-02-23T05:09:39.796Z,989.9
2018-02-23T05:10:39.843Z,989.88
2018-02-23T05:11:39.767Z,989.88
2018-02-23T05:12:39.754Z,989.88
2018-02-23T05:13:39.751Z,989.89
2018-02-23T05:14:39.728Z,989.9
2018-02-23T05:15:39.794Z,989.82
2018-02-23T05:16:39.705Z,989.86
2018-02-23T05:17:39.688Z,989.78
2018-02-23T05:18:39.681Z,989.93
2018-02-23T05:19:39.663Z,989.98
2018-02-23T05:20:39.651Z,989.87
2018-02-23T05:21:39.636Z,989.91
2018-02-23T05:22:39.622Z,989.96
2018-02-23T05:23:39.611Z,989.92
2018-02-23T05:24:39.601Z,989.86
2018-02-23T05:25:39.582Z,989.93
2018-02-23T05:26:39.571Z,989.89
2018-02-23T05:27:39.555Z,989.9
2018-02-23T05:28:39.614Z,989.88
2018-02-23T05:29:39.588Z,989.86
2018-02-23T05:30:39.600Z,989.86
2018-02-23T05:31:40.753Z,989.85
2018-02-23T05:32:39.488Z,989.84
2018-02-23T05:33:39.475Z,989.8
2018-02-23T05:34:39.469Z,989.92
2018-02-23T05:35:39.452Z,989.94
2018-02-23T05:36:39.434Z,989.87
2018-02-23T05:37:39.424Z,989.94
2018-02-23T05:38:39.407Z,989.91
2018-02-23T05:39:39.397Z,989.85
2018-02-23T05:40:39.380Z,989.87
2018-02-23T05:41:39.368Z,989.87
2018-02-23T05:42:39.397Z,989.91
2018-02-23T05:43:39.341Z,989.93
2018-02-23T05:44:39.337Z,989.82
2018-02-23T05:45:39.313Z,989.91
2018-02-23T05:46:39.306Z,989.91
2018-02-23T05:47:39.290Z,989.87
2018-02-23T05:48:39.274Z,989.94
2018-02-23T05:49:39.262Z,989.86
2018-02-23T05:50:39.308Z,989.9
2018-02-23T05:51:39.237Z,989.84
2018-02-23T05:52:39.218Z,989.89
2018-02-23T05:53:39.206Z,989.99
2018-02-23T05:54:39.198Z,989.93
2018-02-23T05:55:39.181Z,990
2018-02-23T05:56:39.174Z,989.99
2018-02-23T05:57:39.155Z,990.01
2018-02-23T05:58:39.140Z,990
2018-02-23T05:59:39.125Z,990.04
2018-02-23T06:00:39.113Z,990.01
2018-02-23T06:01:39.100Z,990.05
2018-02-23T06:02:39.086Z,989.97
2018-02-23T06:03:39.076Z,990.02
2018-02-23T06:04:39.058Z,990.02
2018-02-23T06:05:39.044Z,990.02
2018-02-23T06:06:39.031Z,990.1
2018-02-23T06:07:39.017Z,989.99
2018-02-23T06:08:39.004Z,990
2018-02-23T06:09:38.990Z,990.02
2018-02-23T06:10:38.978Z,990.01
2018-02-23T06:11:38.963Z,989.99
2018-02-23T06:12:38.950Z,990.1
2018-02-23T06:13:38.936Z,990.02
2018-02-23T06:14:38.923Z,990.13
2018-02-23T06:15:38.909Z,990.07
2018-02-23T06:16:38.895Z,990.07
2018-02-23T06:17:39.131Z,990.04
2018-02-23T06:18:38.870Z,990.07
2018-02-23T06:19:38.860Z,990.07
2018-02-23T06:20:38.844Z,990.15
2018-02-23T06:21:38.828Z,990.09
2018-02-23T06:22:38.815Z,990.01
2018-02-23T06:23:38.800Z,990.17
2018-02-23T06:24:38.786Z,990.15
2018-02-23T06:25:38.772Z,990.16
2018-02-23T06:26:38.759Z,990.17
2018-02-23T06:27:38.745Z,990.18
2018-02-23T06:28:38.731Z,990.15
2018-02-23T06:29:38.728Z,990.18
2018-02-23T06:30:38.704Z,990.17
2018-02-23T06:31:38.691Z,990.23
2018-02-23T06:32:38.676Z,990.18
2018-02-23T06:33:38.662Z,990.18
2018-02-23T06:34:38.648Z,990.21
2018-02-23T06:35:38.642Z,990.24
2018-02-23T06:36:38.622Z,990.35
2018-02-23T06:37:38.616Z,990.31
2018-02-23T06:38:38.596Z,990.37
2018-02-23T06:39:38.589Z,990.3
2018-02-23T06:40:38.586Z,990.26
2018-02-23T06:41:38.566Z,990.25
2018-02-23T06:42:38.542Z,990.29
2018-02-23T06:43:38.530Z,990.27
2018-02-23T06:44:38.531Z,990.34
2018-02-23T06:45:38.501Z,990.28
2018-02-23T06:46:38.489Z,990.34
2018-02-23T06:47:38.475Z,990.35
2018-02-23T06:48:38.471Z,990.33
2018-02-23T06:49:38.450Z,990.34
2018-02-23T06:50:38.431Z,990.36
2018-02-23T06:51:38.418Z,990.42
2018-02-23T06:52:38.416Z,990.27
2018-02-23T06:53:38.391Z,990.39
2018-02-23T06:54:38.376Z,990.29
2018-02-23T06:55:38.363Z,990.31
2018-02-23T06:56:38.376Z,990.28
2018-02-23T06:57:38.336Z,990.33
2018-02-23T06:58:38.322Z,990.34
2018-02-23T06:59:38.306Z,990.36
2018-02-23T07:00:38.296Z,990.4
2018-02-23T07:01:38.281Z,990.37
2018-02-23T07:02:38.266Z,990.35
2018-02-23T07:03:38.251Z,990.4
2018-02-23T07:04:38.248Z,990.42
2018-02-23T07:05:38.225Z,990.35
2018-02-23T07:06:38.213Z,990.39
2018-02-23T07:07:38.204Z,990.38
2018-02-23T07:08:38.184Z,990.42
2018-02-23T07:09:38.171Z,990.45
2018-02-23T07:10:38.160Z,990.37
2018-02-23T07:11:38.143Z,990.38
2018-02-23T07:12:38.132Z,990.45
2018-02-23T07:13:38.117Z,990.41
2018-02-23T07:14:38.105Z,990.4
2018-02-23T07:15:38.090Z,990.43
2018-02-23T07:16:38.085Z,990.39
2018-02-23T07:17:38.064Z,990.43
2018-02-23T07:18:38.056Z,990.46
2018-02-23T07:19:38.034Z,990.49
2018-02-23T07:20:38.022Z,990.39
2018-02-23T07:21:38.011Z,990.41
2018-02-23T07:22:37.996Z,990.36
2018-02-23T07:23:37.981Z,990.39
2018-02-23T07:24:37.967Z,990.39
2018-02-23T07:25:37.955Z,990.52
2018-02-23T07:26:37.939Z,990.47
2018-02-23T07:27:37.927Z,990.48
2018-02-23T07:28:37.913Z,990.46
2018-02-23T07:29:37.901Z,990.53
2018-02-23T07:30:37.887Z,990.55
2018-02-23T07:31:37.873Z,990.51
2018-02-23T07:32:37.859Z,990.59
2018-02-23T07:33:37.845Z,990.55
2018-02-23T07:34:37.831Z,990.5
2018-02-23T07:35:37.821Z,990.51
2018-02-23T07:36:37.806Z,990.5
2018-02-23T07:37:37.793Z,990.5
2018-02-23T07:38:37.780Z,990.44
2018-02-23T07:39:37.771Z,990.42
2018-02-23T07:40:37.757Z,990.44
2018-02-23T07:41:37.746Z,990.42
2018-02-23T07:42:37.726Z,990.45
2018-02-23T07:43:37.755Z,990.33
2018-02-23T07:44:37.698Z,990.49
2018-02-23T07:45:37.687Z,990.41
2018-02-23T07:46:37.679Z,990.45
2018-02-23T07:47:37.665Z,990.43
2018-02-23T07:48:37.646Z,990.37
2018-02-23T07:49:37.633Z,990.38
2018-02-23T07:50:37.620Z,990.42
2018-02-23T07:51:37.607Z,990.52
2018-02-23T07:52:37.595Z,990.47
2018-02-23T07:53:37.580Z,990.52
2018-02-23T07:54:37.571Z,990.47
2018-02-23T07:55:37.552Z,990.55
2018-02-23T07:56:37.538Z,990.58
2018-02-23T07:57:37.527Z,990.61
2018-02-23T07:58:37.518Z,990.61
2018-02-23T07:59:37.501Z,990.71
2018-02-23T08:00:37.487Z,990.62
2018-02-23T08:01:37.473Z,990.73
2018-02-23T08:02:37.459Z,990.7
2018-02-23T08:03:37.447Z,990.73
2018-02-23T08:04:37.433Z,990.66
2018-02-23T08:05:37.426Z,990.75
2018-02-23T08:06:37.407Z,990.73
2018-02-23T08:07:37.400Z,990.8
2018-02-23T08:08:37.381Z,990.72
2018-02-23T08:09:37.369Z,990.69
2018-02-23T08:10:37.358Z,990.67
2018-02-23T08:11:37.346Z,990.71
2018-02-23T08:12:37.330Z,990.84
2018-02-23T08:13:37.317Z,990.77
2018-02-23T08:14:37.304Z,990.76
2018-02-23T08:15:37.290Z,990.73
2018-02-23T08:16:37.278Z,990.71
2018-02-23T08:17:37.263Z,990.73
2018-02-23T08:18:37.254Z,990.78
2018-02-23T08:19:37.238Z,990.73
2018-02-23T08:20:37.224Z,990.77
2018-02-23T08:21:37.211Z,990.76
2018-02-23T08:22:37.201Z,990.75
2018-02-23T08:23:37.184Z,990.79
2018-02-23T08:24:37.170Z,990.81
2018-02-23T08:25:37.158Z,990.83
2018-02-23T08:26:37.143Z,990.78
2018-02-23T08:27:37.131Z,990.83
2018-02-23T08:28:37.118Z,990.79
2018-02-23T08:29:37.105Z,990.81
2018-02-23T08:30:37.096Z,990.8
2018-02-23T08:31:37.080Z,990.83
2018-02-23T08:32:37.073Z,990.72
2018-02-23T08:33:37.058Z,990.71
2018-02-23T08:34:37.044Z,990.72
2018-02-23T08:35:37.028Z,990.73
2018-02-23T08:36:37.014Z,990.78
2018-02-23T08:37:37.001Z,990.81
2018-02-23T08:38:37.002Z,990.72
2018-02-23T08:39:36.976Z,990.77
2018-02-23T08:40:36.964Z,990.79
2018-02-23T08:41:36.951Z,990.81
2018-02-23T08:42:36.940Z,990.64
2018-02-23T08:43:36.926Z,990.7
2018-02-23T08:44:36.913Z,990.71
2018-02-23T08:45:36.900Z,990.73
2018-02-23T08:46:36.887Z,990.76
2018-02-23T08:47:36.876Z,990.77
2018-02-23T08:48:36.861Z,990.74
2018-02-23T08:49:36.851Z,990.78
2018-02-23T08:50:36.837Z,990.76
2018-02-23T08:51:36.825Z,990.74
2018-02-23T08:52:36.817Z,990.71
2018-02-23T08:53:36.800Z,990.8
2018-02-23T08:54:36.787Z,990.85
2018-02-23T08:55:36.774Z,990.87
2018-02-23T08:56:36.762Z,990.83
2018-02-23T08:57:36.748Z,990.83
2018-02-23T08:58:36.736Z,990.84
2018-02-23T08:59:36.723Z,990.82
2018-02-23T09:00:36.711Z,990.8
2018-02-23T09:01:36.697Z,990.78
2018-02-23T09:02:36.686Z,990.78
2018-02-23T09:03:36.673Z,990.82
2018-02-23T09:04:36.661Z,990.79
2018-02-23T09:05:36.653Z,990.83
2018-02-23T09:06:36.641Z,990.78
2018-02-23T09:07:36.628Z,990.91
2018-02-23T09:08:36.613Z,990.89
2018-02-23T09:09:36.604Z,990.9
2018-02-23T09:10:36.590Z,990.89
2018-02-23T09:11:36.579Z,990.87
2018-02-23T09:12:36.577Z,990.88
2018-02-23T09:13:36.561Z,990.92
2018-02-23T09:14:36.542Z,990.89
2018-02-23T09:15:36.531Z,990.86
2018-02-23T09:16:36.516Z,990.89
2018-02-23T09:17:36.504Z,990.87
2018-02-23T09:18:36.496Z,990.87
2018-02-23T09:19:36.479Z,990.89
2018-02-23T09:20:36.469Z,990.81
2018-02-23T09:21:36.460Z,990.95
2018-02-23T09:22:36.447Z,990.91
2018-02-23T09:23:36.430Z,990.91
2018-02-23T09:24:36.454Z,990.99
2018-02-23T09:25:36.407Z,990.97
2018-02-23T09:26:36.404Z,990.97
2018-02-23T09:27:36.391Z,991.01
2018-02-23T09:28:36.376Z,991.04
2018-02-23T09:29:36.357Z,991.02
2018-02-23T09:30:36.350Z,991.03
2018-02-23T09:31:36.333Z,990.93
2018-02-23T09:32:36.321Z,990.99
2018-02-23T09:33:36.321Z,991.01
2018-02-23T09:34:36.295Z,990.96
2018-02-23T09:35:36.297Z,991.03
2018-02-23T09:36:36.272Z,991
2018-02-23T09:37:36.260Z,991.04
2018-02-23T09:38:36.248Z,991.05
2018-02-23T09:39:36.238Z,991.05
2018-02-23T09:40:36.226Z,991.06
2018-02-23T09:41:36.214Z,990.96
2018-02-23T09:42:36.201Z,991.02
2018-02-23T09:43:36.229Z,991.03
2018-02-23T09:44:36.176Z,990.97
2018-02-23T09:45:36.168Z,990.94
2018-02-23T09:46:36.152Z,990.97
2018-02-23T09:47:36.140Z,991.03
2018-02-23T09:48:36.128Z,991.07
2018-02-23T09:49:36.116Z,991.01
2018-02-23T09:50:37.958Z,991.04
2018-02-23T09:51:36.095Z,991.04
2018-02-23T09:52:36.082Z,991.03
2018-02-23T09:53:36.072Z,991.04
2018-02-23T09:54:36.060Z,991.06
2018-02-23T09:55:36.048Z,991.04
2018-02-23T09:56:36.039Z,991.1
2018-02-23T09:57:36.032Z,991.14
2018-02-23T09:58:36.016Z,991.08
2018-02-23T09:59:36.000Z,991.05
2018-02-23T10:00:35.991Z,991.05
2018-02-23T10:01:35.976Z,991.04
2018-02-23T10:02:35.968Z,991.06
2018-02-23T10:03:35.954Z,991.11
2018-02-23T10:04:35.952Z,991.14
2018-02-23T10:05:35.940Z,991.1
2018-02-23T10:06:35.924Z,991.06
2018-02-23T10:07:35.911Z,991.03
2018-02-23T10:08:35.909Z,991.07
2018-02-23T10:09:35.898Z,991.08
2018-02-23T10:10:35.873Z,991.16
2018-02-23T10:11:35.865Z,991.2
2018-02-23T10:12:35.852Z,991.2
2018-02-23T10:13:35.840Z,991.18
2018-02-23T10:14:35.826Z,991.16
2018-02-23T10:15:35.854Z,991.1
2018-02-23T10:16:35.806Z,991.14
2018-02-23T10:17:35.794Z,991.08
2018-02-23T10:18:35.782Z,991.08
2018-02-23T10:19:35.774Z,991.03
2018-02-23T10:20:35.763Z,991.05
2018-02-23T10:21:35.749Z,991.03
2018-02-23T10:22:35.736Z,991.12
2018-02-23T10:23:35.781Z,991.04
2018-02-23T10:24:35.729Z,991.03
2018-02-23T10:25:35.709Z,991.02
2018-02-23T10:55:38.519Z,991.1
2018-02-23T10:56:38.508Z,991.09
2018-02-23T10:57:38.482Z,991.03
2018-02-23T10:58:38.467Z,991.05
2018-02-23T10:59:38.453Z,991.03
2018-02-23T11:00:38.436Z,991.02
2018-02-23T11:01:38.425Z,991.04
2018-02-23T11:02:38.409Z,991.08
2018-02-23T11:03:38.396Z,991.07
2018-02-23T11:04:38.382Z,991.11
2018-02-23T11:05:38.373Z,991.08
2018-02-23T11:06:38.362Z,991.07
2018-02-23T11:07:38.346Z,991.04
2018-02-23T11:08:38.333Z,991
2018-02-23T11:09:38.321Z,991.07
2018-02-23T11:10:39.616Z,991.02
2018-02-23T11:11:38.297Z,991.03
2018-02-23T11:12:38.286Z,991.06
2018-02-23T11:13:38.275Z,990.98
2018-02-23T11:14:38.263Z,990.9
2018-02-23T11:15:38.249Z,990.94
2018-02-23T11:16:38.240Z,990.9
2018-02-23T11:17:38.226Z,990.94
2018-02-23T11:18:38.250Z,990.91
2018-02-23T11:19:38.204Z,990.88
2018-02-23T11:20:38.194Z,990.87
2018-02-23T11:21:38.182Z,990.84
2018-02-23T11:22:38.171Z,990.83
2018-02-23T11:23:38.160Z,990.86
2018-02-23T11:24:38.154Z,990.88
2018-02-23T11:25:38.138Z,990.8
2018-02-23T11:26:38.129Z,990.81
2018-02-23T11:27:38.139Z,990.76
2018-02-23T11:28:38.105Z,990.78
2018-02-23T11:29:38.129Z,990.76
2018-02-23T11:30:38.082Z,990.83
2018-02-23T11:31:38.072Z,990.81
2018-02-23T11:32:38.060Z,990.8
2018-02-23T11:33:38.051Z,990.74
2018-02-23T11:34:38.040Z,990.71
2018-02-23T11:35:38.030Z,990.65
2018-02-23T11:36:38.020Z,990.64
2018-02-23T11:37:38.007Z,990.57
2018-02-23T11:38:37.998Z,990.53
2018-02-23T11:39:37.986Z,990.57
2018-02-23T11:40:37.978Z,990.51
2018-02-23T11:41:37.968Z,990.53
2018-02-23T11:42:37.952Z,990.57
2018-02-23T11:43:37.942Z,990.5
2018-02-23T11:44:37.934Z,990.39
2018-02-23T11:45:37.922Z,990.45
2018-02-23T11:46:37.909Z,990.42
2018-02-23T11:47:37.900Z,990.38
2018-02-23T11:48:37.899Z,990.39
2018-02-23T11:49:37.877Z,990.36
2018-02-23T11:50:37.875Z,990.45
2018-02-23T11:51:37.856Z,990.45
2018-02-23T11:52:37.848Z,990.4
2018-02-23T11:53:37.834Z,990.37
2018-02-23T11:54:37.826Z,990.35
2018-02-23T11:55:37.815Z,990.34
2018-02-23T11:56:37.804Z,990.35
2018-02-23T11:57:37.795Z,990.34
2018-02-23T11:58:37.782Z,990.34
2018-02-23T11:59:37.773Z,990.35
2018-02-23T12:00:37.767Z,990.27
2018-02-23T12:01:37.755Z,990.32
2018-02-23T12:02:37.740Z,990.32
2018-02-23T12:03:37.737Z,990.36
2018-02-23T12:04:37.721Z,990.32
2018-02-23T12:05:37.710Z,990.39
2018-02-23T12:06:37.705Z,990.32
2018-02-23T12:07:37.697Z,990.35
2018-02-23T12:08:37.681Z,990.32
2018-02-23T12:09:37.670Z,990.3
2018-02-23T12:10:37.662Z,990.3
2018-02-23T12:11:37.649Z,990.33
2018-02-23T12:12:37.641Z,990.32
2018-02-23T12:13:37.630Z,990.36
2018-02-23T12:14:37.629Z,990.31
2018-02-23T12:15:37.609Z,990.27
2018-02-23T12:16:37.602Z,990.26
2018-02-23T12:17:37.590Z,990.2
2018-02-23T12:18:37.583Z,990.22
2018-02-23T12:19:37.571Z,990.22
2018-02-23T12:20:37.567Z,990.2
2018-02-23T12:21:37.562Z,990.22
2018-02-23T12:22:37.545Z,990.24
2018-02-23T12:23:37.531Z,990.25
2018-02-23T12:24:37.526Z,990.24
2018-02-23T12:25:37.517Z,990.2
2018-02-23T12:26:39.103Z,990.3
2018-02-23T12:27:37.496Z,990.24
2018-02-23T12:28:37.482Z,990.21
2018-02-23T12:29:37.477Z,990.22
2018-02-23T12:30:37.464Z,990.2
2018-02-23T12:31:37.454Z,990.22
2018-02-23T12:32:37.445Z,990.27
2018-02-23T12:33:37.434Z,990.22
2018-02-23T12:34:37.424Z,990.29
2018-02-23T12:35:37.415Z,990.27
2018-02-23T12:36:37.411Z,990.23
2018-02-23T12:37:37.394Z,990.29
2018-02-23T12:38:37.384Z,990.27
2018-02-23T12:39:37.374Z,990.29
2018-02-23T12:40:37.364Z,990.35
2018-02-23T12:41:37.355Z,990.35
2018-02-23T12:42:37.347Z,990.34
2018-02-23T12:43:37.335Z,990.36
2018-02-23T12:44:37.366Z,990.27
2018-02-23T12:45:37.315Z,990.3
2018-02-23T12:46:37.307Z,990.18
2018-02-23T12:47:37.296Z,990.2
2018-02-23T12:48:37.286Z,990.14
2018-02-23T12:49:37.283Z,990.16
2018-02-23T12:50:37.275Z,990.08
2018-02-23T12:51:37.258Z,990.08
2018-02-23T12:52:37.248Z,990.07
2018-02-23T12:53:37.249Z,990.09
2018-02-23T12:54:37.234Z,990.05
2018-02-23T12:55:37.228Z,990.05
2018-02-23T12:56:37.211Z,990.12
2018-02-23T12:57:37.202Z,990.09
2018-02-23T12:58:37.196Z,990.21
2018-02-23T12:59:37.185Z,990.14
2018-02-23T13:00:37.181Z,990.13